sensor_id;sensor_type;location;lat;lon;timestamp;P1;durP1;ratioP1;P2;durP2;ratioP2
38034;SDS011;23841;48.524;1.342;2023-06-14T00:01:17;8.10;;;5.25;;
38034;SDS011;23841;48.524;1.342;2023-06-14T00:03:45;6.53;;;5.18;;
38034;SDS011;23841;48.524;1.342;2023-06-14T00:06:12;6.95;;;5.22;;
38034;SDS011;23841;48.524;1.342;2023-06-14T00:08:38;7.25;;;5.00;;
38034;SDS011;23841;48.524;1.342;2023-06-14T00:11:04;6.70;;;5.20;;
38034;SDS011;23841;48.524;1.342;2023-06-14T00:13:30;6.95;;;5.18;;
38034;SDS011;23841;48.524;1.342;2023-06-14T00:15:55;7.07;;;5.57;;
38034;SDS011;23841;48.524;1.342;2023-06-14T00:18:21;7.43;;;5.55;;
38034;SDS011;23841;48.524;1.342;2023-06-14T00:20:49;7.50;;;5.80;;
38034;SDS011;23841;48.524;1.342;2023-06-14T00:23:16;7.72;;;5.28;;
38034;SDS011;23841;48.524;1.342;2023-06-14T00:25:41;8.05;;;5.10;;
38034;SDS011;23841;48.524;1.342;2023-06-14T00:28:07;7.10;;;5.15;;
38034;SDS011;23841;48.524;1.342;2023-06-14T00:30:32;6.13;;;4.95;;
38034;SDS011;23841;48.524;1.342;2023-06-14T00:32:57;6.45;;;5.10;;
38034;SDS011;23841;48.524;1.342;2023-06-14T00:35:23;6.93;;;5.65;;
38034;SDS011;23841;48.524;1.342;2023-06-14T00:37:49;8.57;;;5.72;;
38034;SDS011;23841;48.524;1.342;2023-06-14T00:40:14;7.65;;;5.53;;
38034;SDS011;23841;48.524;1.342;2023-06-14T00:42:40;7.70;;;4.95;;
38034;SDS011;23841;48.524;1.342;2023-06-14T00:45:05;8.05;;;5.55;;
38034;SDS011;23841;48.524;1.342;2023-06-14T00:47:31;7.82;;;5.68;;
38034;SDS011;23841;48.524;1.342;2023-06-14T00:49:57;6.57;;;5.65;;
38034;SDS011;23841;48.524;1.342;2023-06-14T00:52:23;7.90;;;5.38;;
38034;SDS011;23841;48.524;1.342;2023-06-14T00:54:51;6.55;;;5.47;;
38034;SDS011;23841;48.524;1.342;2023-06-14T00:57:17;8.35;;;5.50;;
38034;SDS011;23841;48.524;1.342;2023-06-14T00:59:46;6.45;;;4.95;;
38034;SDS011;23841;48.524;1.342;2023-06-14T01:02:13;7.30;;;5.63;;
38034;SDS011;23841;48.524;1.342;2023-06-14T01:04:43;6.43;;;5.18;;
38034;SDS011;23841;48.524;1.342;2023-06-14T01:15:40;7.28;;;5.88;;
38034;SDS011;23841;48.524;1.342;2023-06-14T01:18:08;7.38;;;6.05;;
38034;SDS011;23841;48.524;1.342;2023-06-14T01:20:42;8.07;;;5.45;;
38034;SDS011;23841;48.524;1.342;2023-06-14T01:23:10;7.30;;;6.15;;
38034;SDS011;23841;48.524;1.342;2023-06-14T01:25:37;8.40;;;5.38;;
38034;SDS011;23841;48.524;1.342;2023-06-14T01:28:04;7.45;;;5.65;;
38034;SDS011;23841;48.524;1.342;2023-06-14T01:30:38;6.93;;;5.70;;
38034;SDS011;23841;48.524;1.342;2023-06-14T01:33:11;6.90;;;5.47;;
38034;SDS011;23841;48.524;1.342;2023-06-14T01:35:42;7.93;;;5.80;;
38034;SDS011;23841;48.524;1.342;2023-06-14T01:38:08;8.43;;;5.75;;
38034;SDS011;23841;48.524;1.342;2023-06-14T01:40:34;7.53;;;5.60;;
38034;SDS011;23841;48.524;1.342;2023-06-14T01:43:00;7.50;;;5.47;;
38034;SDS011;23841;48.524;1.342;2023-06-14T01:45:27;8.18;;;6.05;;
38034;SDS011;23841;48.524;1.342;2023-06-14T01:47:54;9.27;;;6.10;;
38034;SDS011;23841;48.524;1.342;2023-06-14T01:50:20;7.10;;;5.88;;
38034;SDS011;23841;48.524;1.342;2023-06-14T01:52:46;7.30;;;5.93;;
38034;SDS011;23841;48.524;1.342;2023-06-14T01:55:11;8.38;;;5.75;;
38034;SDS011;23841;48.524;1.342;2023-06-14T01:57:37;7.30;;;5.97;;
38034;SDS011;23841;48.524;1.342;2023-06-14T02:00:03;7.80;;;6.07;;
38034;SDS011;23841;48.524;1.342;2023-06-14T02:02:33;8.00;;;5.65;;
38034;SDS011;23841;48.524;1.342;2023-06-14T02:04:58;7.40;;;5.50;;
38034;SDS011;23841;48.524;1.342;2023-06-14T02:07:24;7.55;;;6.05;;
38034;SDS011;23841;48.524;1.342;2023-06-14T02:09:49;7.15;;;5.75;;
38034;SDS011;23841;48.524;1.342;2023-06-14T02:12:15;7.63;;;5.60;;
38034;SDS011;23841;48.524;1.342;2023-06-14T02:14:40;8.35;;;6.10;;
38034;SDS011;23841;48.524;1.342;2023-06-14T02:17:05;7.20;;;5.90;;
38034;SDS011;23841;48.524;1.342;2023-06-14T02:19:31;8.38;;;6.13;;
38034;SDS011;23841;48.524;1.342;2023-06-14T02:21:57;8.27;;;6.30;;
38034;SDS011;23841;48.524;1.342;2023-06-14T02:24:22;7.53;;;5.82;;
38034;SDS011;23841;48.524;1.342;2023-06-14T02:26:48;8.00;;;6.35;;
38034;SDS011;23841;48.524;1.342;2023-06-14T02:29:14;8.85;;;6.15;;
38034;SDS011;23841;48.524;1.342;2023-06-14T02:31:40;7.72;;;6.07;;
38034;SDS011;23841;48.524;1.342;2023-06-14T02:34:06;7.07;;;5.70;;
38034;SDS011;23841;48.524;1.342;2023-06-14T02:36:33;7.82;;;5.95;;
38034;SDS011;23841;48.524;1.342;2023-06-14T02:38:59;8.32;;;6.07;;
38034;SDS011;23841;48.524;1.342;2023-06-14T02:41:25;10.88;;;6.82;;
38034;SDS011;23841;48.524;1.342;2023-06-14T02:43:51;8.38;;;6.03;;
38034;SDS011;23841;48.524;1.342;2023-06-14T02:46:17;8.10;;;6.03;;
38034;SDS011;23841;48.524;1.342;2023-06-14T02:48:43;8.23;;;6.45;;
38034;SDS011;23841;48.524;1.342;2023-06-14T02:51:08;8.95;;;6.07;;
38034;SDS011;23841;48.524;1.342;2023-06-14T02:53:34;7.75;;;6.13;;
38034;SDS011;23841;48.524;1.342;2023-06-14T02:56:00;8.40;;;5.78;;
38034;SDS011;23841;48.524;1.342;2023-06-14T02:58:26;8.10;;;6.00;;
38034;SDS011;23841;48.524;1.342;2023-06-14T03:00:51;9.25;;;6.18;;
38034;SDS011;23841;48.524;1.342;2023-06-14T03:03:18;8.07;;;6.05;;
38034;SDS011;23841;48.524;1.342;2023-06-14T03:05:45;9.60;;;5.63;;
38034;SDS011;23841;48.524;1.342;2023-06-14T03:08:12;8.15;;;6.32;;
38034;SDS011;23841;48.524;1.342;2023-06-14T03:10:47;7.32;;;6.00;;
38034;SDS011;23841;48.524;1.342;2023-06-14T03:13:17;7.50;;;6.03;;
38034;SDS011;23841;48.524;1.342;2023-06-14T03:15:45;9.15;;;6.32;;
38034;SDS011;23841;48.524;1.342;2023-06-14T03:18:11;11.23;;;6.72;;
38034;SDS011;23841;48.524;1.342;2023-06-14T03:20:37;7.47;;;6.20;;
38034;SDS011;23841;48.524;1.342;2023-06-14T03:23:02;7.75;;;5.90;;
38034;SDS011;23841;48.524;1.342;2023-06-14T03:25:28;9.27;;;6.22;;
38034;SDS011;23841;48.524;1.342;2023-06-14T03:27:58;7.10;;;5.85;;
38034;SDS011;23841;48.524;1.342;2023-06-14T03:30:24;9.77;;;6.38;;
38034;SDS011;23841;48.524;1.342;2023-06-14T03:32:49;9.45;;;5.85;;
38034;SDS011;23841;48.524;1.342;2023-06-14T03:35:18;8.77;;;6.05;;
38034;SDS011;23841;48.524;1.342;2023-06-14T03:37:44;8.93;;;6.68;;
38034;SDS011;23841;48.524;1.342;2023-06-14T03:40:10;8.90;;;5.95;;
38034;SDS011;23841;48.524;1.342;2023-06-14T03:42:37;7.68;;;5.75;;
38034;SDS011;23841;48.524;1.342;2023-06-14T03:45:03;7.40;;;6.10;;
38034;SDS011;23841;48.524;1.342;2023-06-14T03:47:29;7.80;;;5.93;;
38034;SDS011;23841;48.524;1.342;2023-06-14T03:49:55;10.60;;;6.53;;
38034;SDS011;23841;48.524;1.342;2023-06-14T03:52:20;8.70;;;6.90;;
38034;SDS011;23841;48.524;1.342;2023-06-14T03:54:47;7.63;;;6.15;;
38034;SDS011;23841;48.524;1.342;2023-06-14T03:57:12;8.98;;;6.45;;
38034;SDS011;23841;48.524;1.342;2023-06-14T03:59:38;7.70;;;6.05;;
38034;SDS011;23841;48.524;1.342;2023-06-14T04:02:03;9.68;;;6.25;;
38034;SDS011;23841;48.524;1.342;2023-06-14T04:04:29;8.98;;;5.53;;
38034;SDS011;23841;48.524;1.342;2023-06-14T04:06:57;8.45;;;6.32;;
38034;SDS011;23841;48.524;1.342;2023-06-14T04:09:24;8.52;;;6.20;;
38034;SDS011;23841;48.524;1.342;2023-06-14T04:11:50;7.47;;;5.97;;
38034;SDS011;23841;48.524;1.342;2023-06-14T04:14:18;7.53;;;5.65;;
38034;SDS011;23841;48.524;1.342;2023-06-14T04:16:44;7.15;;;5.60;;
38034;SDS011;23841;48.524;1.342;2023-06-14T04:19:10;6.95;;;6.03;;
38034;SDS011;23841;48.524;1.342;2023-06-14T04:21:35;8.15;;;5.95;;
38034;SDS011;23841;48.524;1.342;2023-06-14T04:24:01;8.00;;;6.00;;
38034;SDS011;23841;48.524;1.342;2023-06-14T04:26:27;9.00;;;6.38;;
38034;SDS011;23841;48.524;1.342;2023-06-14T04:28:54;7.63;;;6.47;;
38034;SDS011;23841;48.524;1.342;2023-06-14T04:31:21;8.30;;;6.57;;
38034;SDS011;23841;48.524;1.342;2023-06-14T04:33:50;8.20;;;5.97;;
38034;SDS011;23841;48.524;1.342;2023-06-14T04:36:18;7.68;;;6.15;;
38034;SDS011;23841;48.524;1.342;2023-06-14T04:38:44;7.35;;;6.03;;
38034;SDS011;23841;48.524;1.342;2023-06-14T04:41:11;8.88;;;6.05;;
38034;SDS011;23841;48.524;1.342;2023-06-14T04:43:37;7.63;;;5.68;;
38034;SDS011;23841;48.524;1.342;2023-06-14T04:46:05;9.73;;;6.50;;
38034;SDS011;23841;48.524;1.342;2023-06-14T04:48:35;8.13;;;6.07;;
38034;SDS011;23841;48.524;1.342;2023-06-14T04:51:02;8.52;;;6.25;;
38034;SDS011;23841;48.524;1.342;2023-06-14T04:53:29;7.45;;;5.90;;
38034;SDS011;23841;48.524;1.342;2023-06-14T04:55:54;7.97;;;6.20;;
38034;SDS011;23841;48.524;1.342;2023-06-14T04:58:19;7.90;;;6.50;;
38034;SDS011;23841;48.524;1.342;2023-06-14T05:00:45;7.30;;;6.20;;
38034;SDS011;23841;48.524;1.342;2023-06-14T05:03:11;7.35;;;6.03;;
38034;SDS011;23841;48.524;1.342;2023-06-14T05:05:38;10.80;;;6.38;;
38034;SDS011;23841;48.524;1.342;2023-06-14T05:08:05;7.50;;;6.05;;
38034;SDS011;23841;48.524;1.342;2023-06-14T05:10:31;8.23;;;6.40;;
38034;SDS011;23841;48.524;1.342;2023-06-14T05:12:56;8.13;;;6.43;;
38034;SDS011;23841;48.524;1.342;2023-06-14T05:15:21;8.10;;;5.60;;
38034;SDS011;23841;48.524;1.342;2023-06-14T05:17:50;7.95;;;6.53;;
38034;SDS011;23841;48.524;1.342;2023-06-14T05:20:20;10.20;;;6.50;;
38034;SDS011;23841;48.524;1.342;2023-06-14T05:22:49;9.57;;;6.53;;
38034;SDS011;23841;48.524;1.342;2023-06-14T05:25:21;7.22;;;5.85;;
38034;SDS011;23841;48.524;1.342;2023-06-14T05:27:47;8.63;;;5.93;;
38034;SDS011;23841;48.524;1.342;2023-06-14T05:30:14;9.55;;;6.63;;
38034;SDS011;23841;48.524;1.342;2023-06-14T05:32:40;10.18;;;6.68;;
38034;SDS011;23841;48.524;1.342;2023-06-14T05:35:06;8.38;;;6.20;;
38034;SDS011;23841;48.524;1.342;2023-06-14T05:37:32;8.07;;;6.13;;
38034;SDS011;23841;48.524;1.342;2023-06-14T05:39:57;8.77;;;6.13;;
38034;SDS011;23841;48.524;1.342;2023-06-14T05:42:23;9.25;;;5.68;;
38034;SDS011;23841;48.524;1.342;2023-06-14T05:44:48;7.03;;;5.65;;
38034;SDS011;23841;48.524;1.342;2023-06-14T05:47:14;7.47;;;5.72;;
38034;SDS011;23841;48.524;1.342;2023-06-14T05:49:39;8.65;;;5.95;;
38034;SDS011;23841;48.524;1.342;2023-06-14T05:52:05;8.98;;;6.38;;
38034;SDS011;23841;48.524;1.342;2023-06-14T05:54:31;8.10;;;6.38;;
38034;SDS011;23841;48.524;1.342;2023-06-14T05:56:56;7.57;;;5.90;;
38034;SDS011;23841;48.524;1.342;2023-06-14T05:59:26;8.13;;;6.18;;
38034;SDS011;23841;48.524;1.342;2023-06-14T06:01:52;6.97;;;5.85;;
38034;SDS011;23841;48.524;1.342;2023-06-14T06:04:17;8.10;;;6.03;;
38034;SDS011;23841;48.524;1.342;2023-06-14T06:06:43;8.82;;;6.10;;
38034;SDS011;23841;48.524;1.342;2023-06-14T06:09:08;8.07;;;6.38;;
38034;SDS011;23841;48.524;1.342;2023-06-14T06:11:33;8.75;;;5.85;;
38034;SDS011;23841;48.524;1.342;2023-06-14T06:13:59;8.77;;;6.28;;
38034;SDS011;23841;48.524;1.342;2023-06-14T06:16:24;7.43;;;6.07;;
38034;SDS011;23841;48.524;1.342;2023-06-14T06:18:50;8.20;;;6.05;;
38034;SDS011;23841;48.524;1.342;2023-06-14T06:21:15;7.85;;;6.18;;
38034;SDS011;23841;48.524;1.342;2023-06-14T06:23:41;7.80;;;5.45;;
38034;SDS011;23841;48.524;1.342;2023-06-14T06:26:06;8.10;;;6.13;;
38034;SDS011;23841;48.524;1.342;2023-06-14T06:28:32;7.63;;;5.55;;
38034;SDS011;23841;48.524;1.342;2023-06-14T06:30:57;7.65;;;6.03;;
38034;SDS011;23841;48.524;1.342;2023-06-14T06:33:23;8.73;;;5.82;;
38034;SDS011;23841;48.524;1.342;2023-06-14T06:35:48;7.35;;;6.07;;
38034;SDS011;23841;48.524;1.342;2023-06-14T06:38:14;8.35;;;6.00;;
38034;SDS011;23841;48.524;1.342;2023-06-14T06:40:39;7.70;;;5.88;;
38034;SDS011;23841;48.524;1.342;2023-06-14T06:43:05;6.85;;;5.75;;
38034;SDS011;23841;48.524;1.342;2023-06-14T06:45:30;8.15;;;5.80;;
38034;SDS011;23841;48.524;1.342;2023-06-14T06:47:56;9.90;;;6.22;;
38034;SDS011;23841;48.524;1.342;2023-06-14T06:50:21;7.60;;;5.97;;
38034;SDS011;23841;48.524;1.342;2023-06-14T06:52:50;7.82;;;5.88;;
38034;SDS011;23841;48.524;1.342;2023-06-14T06:55:16;7.57;;;6.10;;
38034;SDS011;23841;48.524;1.342;2023-06-14T06:57:41;6.82;;;5.32;;
38034;SDS011;23841;48.524;1.342;2023-06-14T07:00:07;8.13;;;5.93;;
38034;SDS011;23841;48.524;1.342;2023-06-14T07:02:34;7.85;;;5.60;;
38034;SDS011;23841;48.524;1.342;2023-06-14T07:04:59;9.45;;;6.05;;
38034;SDS011;23841;48.524;1.342;2023-06-14T07:07:25;7.53;;;5.53;;
38034;SDS011;23841;48.524;1.342;2023-06-14T07:09:50;7.63;;;5.65;;
38034;SDS011;23841;48.524;1.342;2023-06-14T07:12:16;7.47;;;6.18;;
38034;SDS011;23841;48.524;1.342;2023-06-14T07:14:41;7.25;;;5.45;;
38034;SDS011;23841;48.524;1.342;2023-06-14T07:17:07;7.10;;;5.82;;
38034;SDS011;23841;48.524;1.342;2023-06-14T07:19:32;7.57;;;5.57;;
38034;SDS011;23841;48.524;1.342;2023-06-14T07:21:58;7.05;;;5.55;;
38034;SDS011;23841;48.524;1.342;2023-06-14T07:24:23;7.00;;;5.53;;
38034;SDS011;23841;48.524;1.342;2023-06-14T07:26:49;7.70;;;5.70;;
38034;SDS011;23841;48.524;1.342;2023-06-14T07:29:14;6.95;;;5.60;;
38034;SDS011;23841;48.524;1.342;2023-06-14T07:31:41;6.88;;;5.20;;
38034;SDS011;23841;48.524;1.342;2023-06-14T07:34:07;8.40;;;6.18;;
38034;SDS011;23841;48.524;1.342;2023-06-14T07:36:32;8.70;;;5.60;;
38034;SDS011;23841;48.524;1.342;2023-06-14T07:38:57;6.30;;;4.93;;
38034;SDS011;23841;48.524;1.342;2023-06-14T07:41:23;7.10;;;5.65;;
38034;SDS011;23841;48.524;1.342;2023-06-14T07:43:49;8.98;;;5.78;;
38034;SDS011;23841;48.524;1.342;2023-06-14T07:46:14;7.93;;;5.85;;
38034;SDS011;23841;48.524;1.342;2023-06-14T07:48:40;6.07;;;5.40;;
38034;SDS011;23841;48.524;1.342;2023-06-14T07:51:09;7.00;;;5.43;;
38034;SDS011;23841;48.524;1.342;2023-06-14T07:53:37;9.75;;;5.90;;
38034;SDS011;23841;48.524;1.342;2023-06-14T07:56:03;8.40;;;5.30;;
38034;SDS011;23841;48.524;1.342;2023-06-14T07:58:28;7.40;;;5.50;;
38034;SDS011;23841;48.524;1.342;2023-06-14T08:00:54;8.88;;;5.90;;
38034;SDS011;23841;48.524;1.342;2023-06-14T08:03:19;7.95;;;5.95;;
38034;SDS011;23841;48.524;1.342;2023-06-14T08:05:45;8.45;;;5.65;;
38034;SDS011;23841;48.524;1.342;2023-06-14T08:08:10;9.30;;;5.88;;
38034;SDS011;23841;48.524;1.342;2023-06-14T08:10:36;8.10;;;5.75;;
38034;SDS011;23841;48.524;1.342;2023-06-14T08:13:01;7.05;;;5.70;;
38034;SDS011;23841;48.524;1.342;2023-06-14T08:15:27;8.52;;;5.85;;
38034;SDS011;23841;48.524;1.342;2023-06-14T08:17:52;9.77;;;5.40;;
38034;SDS011;23841;48.524;1.342;2023-06-14T08:20:17;8.00;;;5.32;;
38034;SDS011;23841;48.524;1.342;2023-06-14T08:22:43;7.78;;;5.35;;
38034;SDS011;23841;48.524;1.342;2023-06-14T08:25:09;7.88;;;5.65;;
38034;SDS011;23841;48.524;1.342;2023-06-14T08:27:35;7.18;;;5.72;;
38034;SDS011;23841;48.524;1.342;2023-06-14T08:30:00;6.68;;;5.45;;
38034;SDS011;23841;48.524;1.342;2023-06-14T08:32:27;6.97;;;5.60;;
38034;SDS011;23841;48.524;1.342;2023-06-14T08:34:52;7.32;;;5.57;;
38034;SDS011;23841;48.524;1.342;2023-06-14T08:37:18;7.50;;;5.75;;
38034;SDS011;23841;48.524;1.342;2023-06-14T08:39:43;7.03;;;4.95;;
38034;SDS011;23841;48.524;1.342;2023-06-14T08:42:09;8.82;;;5.50;;
38034;SDS011;23841;48.524;1.342;2023-06-14T08:44:35;6.75;;;5.45;;
38034;SDS011;23841;48.524;1.342;2023-06-14T08:47:01;7.57;;;5.05;;
38034;SDS011;23841;48.524;1.342;2023-06-14T08:49:28;7.22;;;5.60;;
38034;SDS011;23841;48.524;1.342;2023-06-14T08:52:00;7.30;;;4.90;;
38034;SDS011;23841;48.524;1.342;2023-06-14T08:54:27;7.13;;;4.47;;
38034;SDS011;23841;48.524;1.342;2023-06-14T08:56:55;6.40;;;4.88;;
38034;SDS011;23841;48.524;1.342;2023-06-14T08:59:31;7.20;;;4.95;;
38034;SDS011;23841;48.524;1.342;2023-06-14T09:02:05;9.15;;;5.43;;
38034;SDS011;23841;48.524;1.342;2023-06-14T09:04:31;6.50;;;5.03;;
38034;SDS011;23841;48.524;1.342;2023-06-14T09:06:57;7.75;;;4.82;;
38034;SDS011;23841;48.524;1.342;2023-06-14T09:09:23;6.72;;;4.75;;
38034;SDS011;23841;48.524;1.342;2023-06-14T09:11:52;6.43;;;4.97;;
38034;SDS011;23841;48.524;1.342;2023-06-14T09:14:18;6.00;;;4.72;;
38034;SDS011;23841;48.524;1.342;2023-06-14T09:16:44;7.28;;;4.70;;
38034;SDS011;23841;48.524;1.342;2023-06-14T09:19:13;5.82;;;4.38;;
38034;SDS011;23841;48.524;1.342;2023-06-14T09:21:47;6.93;;;4.68;;
38034;SDS011;23841;48.524;1.342;2023-06-14T09:24:13;6.30;;;4.20;;
38034;SDS011;23841;48.524;1.342;2023-06-14T09:26:39;7.68;;;5.05;;
38034;SDS011;23841;48.524;1.342;2023-06-14T09:29:05;6.60;;;4.38;;
38034;SDS011;23841;48.524;1.342;2023-06-14T09:31:31;5.30;;;4.05;;
38034;SDS011;23841;48.524;1.342;2023-06-14T09:33:57;5.68;;;3.80;;
38034;SDS011;23841;48.524;1.342;2023-06-14T09:36:24;6.82;;;4.38;;
38034;SDS011;23841;48.524;1.342;2023-06-14T09:38:55;6.85;;;4.22;;
38034;SDS011;23841;48.524;1.342;2023-06-14T09:41:32;6.78;;;4.50;;
38034;SDS011;23841;48.524;1.342;2023-06-14T09:44:02;7.10;;;4.28;;
38034;SDS011;23841;48.524;1.342;2023-06-14T09:46:29;5.28;;;3.85;;
38034;SDS011;23841;48.524;1.342;2023-06-14T09:48:58;6.47;;;4.32;;
38034;SDS011;23841;48.524;1.342;2023-06-14T09:51:24;5.90;;;4.50;;
38034;SDS011;23841;48.524;1.342;2023-06-14T09:53:51;5.72;;;4.05;;
38034;SDS011;23841;48.524;1.342;2023-06-14T09:56:20;7.25;;;4.75;;
38034;SDS011;23841;48.524;1.342;2023-06-14T09:58:51;7.30;;;4.32;;
38034;SDS011;23841;48.524;1.342;2023-06-14T10:01:20;6.80;;;4.18;;
38034;SDS011;23841;48.524;1.342;2023-06-14T10:03:46;6.53;;;3.85;;
38034;SDS011;23841;48.524;1.342;2023-06-14T10:06:15;5.25;;;3.78;;
38034;SDS011;23841;48.524;1.342;2023-06-14T10:08:41;6.60;;;4.30;;
38034;SDS011;23841;48.524;1.342;2023-06-14T10:11:07;8.10;;;4.30;;
38034;SDS011;23841;48.524;1.342;2023-06-14T10:13:33;6.97;;;4.30;;
38034;SDS011;23841;48.524;1.342;2023-06-14T10:16:04;5.88;;;4.10;;
38034;SDS011;23841;48.524;1.342;2023-06-14T10:18:51;6.20;;;4.30;;
38034;SDS011;23841;48.524;1.342;2023-06-14T10:24:44;7.47;;;4.60;;
38034;SDS011;23841;48.524;1.342;2023-06-14T10:27:12;7.72;;;4.32;;
38034;SDS011;23841;48.524;1.342;2023-06-14T10:32:20;7.13;;;4.43;;
38034;SDS011;23841;48.524;1.342;2023-06-14T10:34:49;6.07;;;3.92;;
38034;SDS011;23841;48.524;1.342;2023-06-14T10:37:19;5.53;;;3.88;;
38034;SDS011;23841;48.524;1.342;2023-06-14T10:39:44;5.70;;;3.88;;
38034;SDS011;23841;48.524;1.342;2023-06-14T10:42:14;6.88;;;4.18;;
38034;SDS011;23841;48.524;1.342;2023-06-14T10:47:24;5.28;;;3.92;;
38034;SDS011;23841;48.524;1.342;2023-06-14T10:49:50;5.53;;;3.83;;
38034;SDS011;23841;48.524;1.342;2023-06-14T10:52:20;6.75;;;3.72;;
38034;SDS011;23841;48.524;1.342;2023-06-14T11:00:27;7.85;;;4.07;;
38034;SDS011;23841;48.524;1.342;2023-06-14T11:06:01;5.88;;;3.90;;
38034;SDS011;23841;48.524;1.342;2023-06-14T11:11:33;7.07;;;4.72;;
38034;SDS011;23841;48.524;1.342;2023-06-14T11:14:01;6.72;;;4.25;;
38034;SDS011;23841;48.524;1.342;2023-06-14T11:16:27;7.00;;;4.30;;
38034;SDS011;23841;48.524;1.342;2023-06-14T11:18:54;5.53;;;4.10;;
38034;SDS011;23841;48.524;1.342;2023-06-14T11:21:20;10.18;;;4.57;;
38034;SDS011;23841;48.524;1.342;2023-06-14T11:23:52;9.32;;;4.95;;
38034;SDS011;23841;48.524;1.342;2023-06-14T11:26:24;8.15;;;4.50;;
38034;SDS011;23841;48.524;1.342;2023-06-14T11:28:54;11.10;;;5.18;;
38034;SDS011;23841;48.524;1.342;2023-06-14T11:31:20;12.45;;;5.20;;
38034;SDS011;23841;48.524;1.342;2023-06-14T11:33:49;10.88;;;4.75;;
38034;SDS011;23841;48.524;1.342;2023-06-14T11:36:15;14.30;;;4.82;;
38034;SDS011;23841;48.524;1.342;2023-06-14T11:38:41;8.35;;;4.35;;
38034;SDS011;23841;48.524;1.342;2023-06-14T11:41:06;9.18;;;5.05;;
38034;SDS011;23841;48.524;1.342;2023-06-14T11:43:31;12.57;;;5.13;;
38034;SDS011;23841;48.524;1.342;2023-06-14T11:45:58;10.25;;;6.28;;
38034;SDS011;23841;48.524;1.342;2023-06-14T11:48:35;14.07;;;5.28;;
38034;SDS011;23841;48.524;1.342;2023-06-14T11:51:01;13.23;;;5.53;;
38034;SDS011;23841;48.524;1.342;2023-06-14T11:53:26;15.02;;;5.32;;
38034;SDS011;23841;48.524;1.342;2023-06-14T11:55:52;15.35;;;5.97;;
38034;SDS011;23841;48.524;1.342;2023-06-14T11:58:18;12.07;;;5.28;;
38034;SDS011;23841;48.524;1.342;2023-06-14T12:00:43;11.50;;;5.32;;
38034;SDS011;23841;48.524;1.342;2023-06-14T12:03:09;13.07;;;5.38;;
38034;SDS011;23841;48.524;1.342;2023-06-14T12:05:34;12.32;;;5.10;;
38034;SDS011;23841;48.524;1.342;2023-06-14T12:08:01;10.35;;;5.07;;
38034;SDS011;23841;48.524;1.342;2023-06-14T12:10:29;11.02;;;5.07;;
38034;SDS011;23841;48.524;1.342;2023-06-14T12:12:58;9.23;;;4.70;;
38034;SDS011;23841;48.524;1.342;2023-06-14T12:15:24;11.30;;;5.25;;
38034;SDS011;23841;48.524;1.342;2023-06-14T12:17:54;8.60;;;5.28;;
38034;SDS011;23841;48.524;1.342;2023-06-14T12:20:20;9.75;;;4.97;;
38034;SDS011;23841;48.524;1.342;2023-06-14T12:22:53;11.20;;;5.28;;
38034;SDS011;23841;48.524;1.342;2023-06-14T12:25:31;9.57;;;4.63;;
38034;SDS011;23841;48.524;1.342;2023-06-14T12:27:58;8.93;;;4.75;;
38034;SDS011;23841;48.524;1.342;2023-06-14T12:30:25;7.90;;;4.35;;
38034;SDS011;23841;48.524;1.342;2023-06-14T12:32:51;7.80;;;4.60;;
38034;SDS011;23841;48.524;1.342;2023-06-14T12:35:16;11.13;;;4.85;;
38034;SDS011;23841;48.524;1.342;2023-06-14T12:37:43;7.68;;;4.32;;
38034;SDS011;23841;48.524;1.342;2023-06-14T12:40:09;6.88;;;4.22;;
38034;SDS011;23841;48.524;1.342;2023-06-14T12:42:36;6.78;;;4.53;;
38034;SDS011;23841;48.524;1.342;2023-06-14T12:45:02;8.10;;;4.57;;
38034;SDS011;23841;48.524;1.342;2023-06-14T12:47:28;7.05;;;4.45;;
38034;SDS011;23841;48.524;1.342;2023-06-14T12:49:54;6.80;;;4.72;;
38034;SDS011;23841;48.524;1.342;2023-06-14T12:52:19;5.55;;;4.07;;
38034;SDS011;23841;48.524;1.342;2023-06-14T12:54:45;6.63;;;4.10;;
38034;SDS011;23841;48.524;1.342;2023-06-14T12:57:10;7.78;;;4.07;;
38034;SDS011;23841;48.524;1.342;2023-06-14T12:59:36;6.60;;;4.50;;
38034;SDS011;23841;48.524;1.342;2023-06-14T13:04:41;6.07;;;4.32;;
38034;SDS011;23841;48.524;1.342;2023-06-14T13:07:06;7.28;;;4.30;;
38034;SDS011;23841;48.524;1.342;2023-06-14T13:09:32;7.20;;;4.45;;
38034;SDS011;23841;48.524;1.342;2023-06-14T13:11:58;7.50;;;4.85;;
38034;SDS011;23841;48.524;1.342;2023-06-14T13:14:23;6.10;;;4.40;;
38034;SDS011;23841;48.524;1.342;2023-06-14T13:16:49;7.45;;;3.80;;
38034;SDS011;23841;48.524;1.342;2023-06-14T13:19:15;7.35;;;4.45;;
38034;SDS011;23841;48.524;1.342;2023-06-14T13:21:40;6.32;;;4.10;;
38034;SDS011;23841;48.524;1.342;2023-06-14T13:24:07;6.38;;;4.07;;
38034;SDS011;23841;48.524;1.342;2023-06-14T13:26:33;5.82;;;4.03;;
38034;SDS011;23841;48.524;1.342;2023-06-14T13:29:00;11.95;;;4.68;;
38034;SDS011;23841;48.524;1.342;2023-06-14T13:31:28;7.57;;;3.78;;
38034;SDS011;23841;48.524;1.342;2023-06-14T13:33:54;7.35;;;4.35;;
38034;SDS011;23841;48.524;1.342;2023-06-14T13:36:20;5.80;;;4.00;;
38034;SDS011;23841;48.524;1.342;2023-06-14T13:38:45;6.03;;;3.90;;
38034;SDS011;23841;48.524;1.342;2023-06-14T13:41:11;6.32;;;3.83;;
38034;SDS011;23841;48.524;1.342;2023-06-14T13:43:36;6.63;;;3.88;;
38034;SDS011;23841;48.524;1.342;2023-06-14T13:46:02;5.55;;;3.55;;
38034;SDS011;23841;48.524;1.342;2023-06-14T13:48:27;6.78;;;3.80;;
38034;SDS011;23841;48.524;1.342;2023-06-14T13:50:52;5.63;;;3.75;;
38034;SDS011;23841;48.524;1.342;2023-06-14T13:53:18;10.55;;;3.95;;
38034;SDS011;23841;48.524;1.342;2023-06-14T13:55:43;13.52;;;7.57;;
38034;SDS011;23841;48.524;1.342;2023-06-14T13:58:09;12.98;;;6.38;;
38034;SDS011;23841;48.524;1.342;2023-06-14T14:00:35;10.38;;;5.88;;
38034;SDS011;23841;48.524;1.342;2023-06-14T14:03:05;12.25;;;6.88;;
38034;SDS011;23841;48.524;1.342;2023-06-14T14:05:30;10.43;;;6.00;;
38034;SDS011;23841;48.524;1.342;2023-06-14T14:07:56;9.82;;;5.90;;
38034;SDS011;23841;48.524;1.342;2023-06-14T14:10:22;12.55;;;5.30;;
38034;SDS011;23841;48.524;1.342;2023-06-14T14:12:49;9.10;;;4.80;;
38034;SDS011;23841;48.524;1.342;2023-06-14T14:15:15;8.40;;;4.65;;
38034;SDS011;23841;48.524;1.342;2023-06-14T14:17:41;7.47;;;5.07;;
38034;SDS011;23841;48.524;1.342;2023-06-14T14:20:07;8.10;;;4.38;;
38034;SDS011;23841;48.524;1.342;2023-06-14T14:22:32;6.40;;;4.20;;
38034;SDS011;23841;48.524;1.342;2023-06-14T14:24:58;7.63;;;4.65;;
38034;SDS011;23841;48.524;1.342;2023-06-14T14:27:23;7.10;;;4.13;;
38034;SDS011;23841;48.524;1.342;2023-06-14T14:29:49;7.07;;;4.68;;
38034;SDS011;23841;48.524;1.342;2023-06-14T14:32:14;8.10;;;4.90;;
38034;SDS011;23841;48.524;1.342;2023-06-14T14:34:40;8.48;;;4.60;;
38034;SDS011;23841;48.524;1.342;2023-06-14T14:37:05;8.20;;;4.60;;
38034;SDS011;23841;48.524;1.342;2023-06-14T14:39:31;7.50;;;4.18;;
38034;SDS011;23841;48.524;1.342;2023-06-14T14:41:56;6.35;;;4.15;;
38034;SDS011;23841;48.524;1.342;2023-06-14T14:44:22;6.50;;;4.00;;
38034;SDS011;23841;48.524;1.342;2023-06-14T14:46:47;6.63;;;4.05;;
38034;SDS011;23841;48.524;1.342;2023-06-14T14:49:12;6.72;;;3.88;;
38034;SDS011;23841;48.524;1.342;2023-06-14T14:51:38;5.68;;;3.78;;
38034;SDS011;23841;48.524;1.342;2023-06-14T14:54:05;8.43;;;4.22;;
38034;SDS011;23841;48.524;1.342;2023-06-14T14:56:31;5.07;;;3.70;;
38034;SDS011;23841;48.524;1.342;2023-06-14T14:58:56;5.88;;;3.40;;
38034;SDS011;23841;48.524;1.342;2023-06-14T15:01:22;6.80;;;3.80;;
38034;SDS011;23841;48.524;1.342;2023-06-14T15:03:47;4.45;;;3.47;;
38034;SDS011;23841;48.524;1.342;2023-06-14T15:06:13;6.07;;;4.22;;
38034;SDS011;23841;48.524;1.342;2023-06-14T15:08:38;4.85;;;3.53;;
38034;SDS011;23841;48.524;1.342;2023-06-14T15:11:03;6.07;;;3.95;;
38034;SDS011;23841;48.524;1.342;2023-06-14T15:13:29;5.40;;;3.85;;